DLH401 KJFK-EDDF
Flight info
| Callsign | DLH401 |
|---|---|
| Flight time | N/A |
| Altitude | 39000 |
| Route | MERIT DCT HFD DCT PUT DCT TOPPS N683B NEEKO/M081F400 DCT 54N050W 55N040W 55N030W 54N020W DCT MALOT DCT GISTI/N0467F390 DCT ENJEX DCT ADHAV DCT AXNEF DCT ZIPWE DCT OZZIL DCT SAWPE Q63 CPT UL9 BIG L607 KONAN DCT KOK UL607 FERDI DCT REMBA DCT SPI T180 NIVNU T847 IMCOM IMCOM1D |
| Aircraft | A346/H-SDE2E3FGHIJ3J4J5M1P2RWXYZ/LB1D1 |
Departure
| Time | 2026-05-01 08:20 |
|---|---|
| Airport | John F. Kennedy International Airport (KJFK) |
Arrival
| Time | N/A |
|---|---|
| Airport | Frankfurt Main Airport (EDDF) |
| Time | Latitude | Longitude | Altitude | Speed | Heading |
|---|---|---|---|---|---|
| 2026-05-01 07:35 | 40.64167 | -73.79152 | 30 ft | 0 kts | 307° |
| 2026-05-01 08:04 | 40.64142 | -73.79109 | 29 ft | 1 kts | 307° |
| 2026-05-01 08:05 | 40.64131 | -73.79067 | 29 ft | 4 kts | 241° |
| 2026-05-01 08:05 | 40.64130 | -73.79068 | 29 ft | 4 kts | 234° |
| 2026-05-01 08:05 | 40.64112 | -73.79090 | 29 ft | 4 kts | 218° |
| 2026-05-01 08:06 | 40.64077 | -73.79133 | 30 ft | 4 kts | 224° |
| 2026-05-01 08:06 | 40.64038 | -73.79183 | 28 ft | 3 kts | 224° |
| 2026-05-01 08:07 | 40.64036 | -73.79186 | 28 ft | 0 kts | 224° |
| 2026-05-01 08:10 | 40.64035 | -73.79187 | 24 ft | 1 kts | 224° |
| 2026-05-01 08:10 | 40.63998 | -73.79234 | 29 ft | 7 kts | 224° |
| 2026-05-01 08:11 | 40.63918 | -73.79322 | 27 ft | 5 kts | 179° |
| 2026-05-01 08:11 | 40.63850 | -73.79214 | 29 ft | 11 kts | 121° |
| 2026-05-01 08:12 | 40.63755 | -73.79008 | 26 ft | 15 kts | 121° |
| 2026-05-01 08:12 | 40.63696 | -73.78877 | 30 ft | 18 kts | 120° |
| 2026-05-01 08:12 | 40.63551 | -73.78556 | 31 ft | 23 kts | 121° |
| 2026-05-01 08:13 | 40.63471 | -73.78379 | 27 ft | 14 kts | 121° |
| 2026-05-01 08:13 | 40.63461 | -73.78357 | 29 ft | 2 kts | 121° |
| 2026-05-01 08:13 | 40.63419 | -73.78265 | 28 ft | 9 kts | 121° |
| 2026-05-01 08:14 | 40.63407 | -73.78219 | 31 ft | 3 kts | 70° |
| 2026-05-01 08:14 | 40.63441 | -73.78186 | 30 ft | 8 kts | 35° |
| 2026-05-01 08:14 | 40.63445 | -73.78116 | 26 ft | 10 kts | 120° |
| 2026-05-01 08:14 | 40.63402 | -73.78023 | 26 ft | 13 kts | 121° |
| 2026-05-01 08:15 | 40.63353 | -73.77908 | 29 ft | 15 kts | 119° |
| 2026-05-01 08:15 | 40.63236 | -73.77648 | 28 ft | 19 kts | 121° |
| 2026-05-01 08:15 | 40.63159 | -73.77477 | 27 ft | 23 kts | 121° |
| 2026-05-01 08:16 | 40.63091 | -73.77329 | 28 ft | 15 kts | 121° |
| 2026-05-01 08:16 | 40.63034 | -73.77203 | 29 ft | 18 kts | 121° |
| 2026-05-01 08:16 | 40.62984 | -73.77103 | 25 ft | 9 kts | 143° |
| 2026-05-01 08:16 | 40.62915 | -73.77111 | 27 ft | 10 kts | 206° |
| 2026-05-01 08:17 | 40.62910 | -73.77114 | 27 ft | 0 kts | 210° |
| 2026-05-01 08:17 | 40.62901 | -73.77122 | 26 ft | 4 kts | 210° |
| 2026-05-01 08:17 | 40.62866 | -73.77147 | 28 ft | 7 kts | 210° |
| 2026-05-01 08:18 | 40.62823 | -73.77200 | 27 ft | 10 kts | 252° |
| 2026-05-01 08:18 | 40.62862 | -73.77318 | 30 ft | 0 kts | 301° |
| 2026-05-01 08:19 | 40.62872 | -73.77340 | 30 ft | 0 kts | 301° |
| 2026-05-01 08:19 | 40.62873 | -73.77343 | 30 ft | 2 kts | 301° |
| 2026-05-01 08:19 | 40.62986 | -73.77587 | 29 ft | 73 kts | 301° |
| 2026-05-01 08:19 | 40.63395 | -73.78490 | 27 ft | 153 kts | 301° |
| 2026-05-01 08:20 | 40.64032 | -73.79899 | 399 ft | 191 kts | 303° |
| 2026-05-01 08:20 | 40.64714 | -73.81364 | 1426 ft | 184 kts | 301° |
| 2026-05-01 08:20 | 40.65094 | -73.82929 | 2437 ft | 183 kts | 282° |
| 2026-05-01 08:20 | 40.65015 | -73.84641 | 3198 ft | 195 kts | 262° |
| 2026-05-01 08:21 | 40.64436 | -73.86326 | 3827 ft | 211 kts | 239° |
| 2026-05-01 08:21 | 40.63341 | -73.87693 | 4499 ft | 224 kts | 217° |
| 2026-05-01 08:21 | 40.61859 | -73.88506 | 5165 ft | 241 kts | 196° |
| 2026-05-01 08:21 | 40.60131 | -73.88641 | 5812 ft | 258 kts | 176° |
| 2026-05-01 08:22 | 40.58349 | -73.88045 | 6521 ft | 271 kts | 163° |
| 2026-05-01 08:22 | 40.56592 | -73.87017 | 7212 ft | 285 kts | 146° |
| 2026-05-01 08:22 | 40.55345 | -73.84994 | 7980 ft | 297 kts | 113° |
| 2026-05-01 08:22 | 40.55061 | -73.82302 | 8784 ft | 303 kts | 79° |
| 2026-05-01 08:23 | 40.55861 | -73.79770 | 9547 ft | 302 kts | 46° |
| 2026-05-01 08:23 | 40.57493 | -73.78112 | 10304 ft | 297 kts | 22° |
| 2026-05-01 08:23 | 40.59373 | -73.76871 | 10880 ft | 311 kts | 22° |
| 2026-05-01 08:23 | 40.61308 | -73.75413 | 11304 ft | 331 kts | 27° |
| 2026-05-01 08:24 | 40.63271 | -73.73656 | 11719 ft | 351 kts | 31° |
| 2026-05-01 08:24 | 40.65232 | -73.71675 | 12114 ft | 370 kts | 34° |
| 2026-05-01 08:24 | 40.67378 | -73.69683 | 12480 ft | 385 kts | 27° |
| 2026-05-01 08:24 | 40.69726 | -73.67884 | 13053 ft | 394 kts | 25° |
| 2026-05-01 08:25 | 40.72130 | -73.66094 | 13853 ft | 399 kts | 24° |
| 2026-05-01 08:25 | 40.74549 | -73.64269 | 14564 ft | 403 kts | 25° |
| 2026-05-01 08:25 | 40.76990 | -73.62400 | 15282 ft | 408 kts | 25° |
| 2026-05-01 08:25 | 40.79452 | -73.60490 | 15992 ft | 412 kts | 26° |
| 2026-05-01 08:26 | 40.81934 | -73.58549 | 16737 ft | 417 kts | 26° |
| 2026-05-01 08:26 | 40.84438 | -73.56580 | 17445 ft | 421 kts | 26° |
| 2026-05-01 08:26 | 40.86936 | -73.54610 | 18144 ft | 426 kts | 26° |
| 2026-05-01 08:26 | 40.89490 | -73.52592 | 18752 ft | 430 kts | 26° |
| 2026-05-01 08:27 | 40.92076 | -73.50547 | 19353 ft | 435 kts | 26° |
| 2026-05-01 08:27 | 40.94681 | -73.48483 | 19947 ft | 439 kts | 26° |
| 2026-05-01 08:27 | 40.97317 | -73.46394 | 20556 ft | 443 kts | 26° |
| 2026-05-01 08:27 | 40.99975 | -73.44284 | 21169 ft | 447 kts | 26° |
| 2026-05-01 08:28 | 41.02651 | -73.42160 | 21776 ft | 452 kts | 26° |
| 2026-05-01 08:28 | 41.05359 | -73.40008 | 22366 ft | 456 kts | 26° |
| 2026-05-01 08:28 | 41.08055 | -73.37863 | 22948 ft | 460 kts | 26° |
| 2026-05-01 08:28 | 41.10810 | -73.35668 | 23516 ft | 464 kts | 26° |
| 2026-05-01 08:29 | 41.13595 | -73.33448 | 23999 ft | 468 kts | 26° |
| 2026-05-01 08:29 | 41.16400 | -73.31209 | 24499 ft | 472 kts | 26° |
| 2026-05-01 08:29 | 41.19220 | -73.28957 | 25009 ft | 475 kts | 26° |
| 2026-05-01 08:29 | 41.22059 | -73.26683 | 25515 ft | 478 kts | 26° |
| 2026-05-01 08:30 | 41.24915 | -73.24387 | 25990 ft | 481 kts | 26° |
| 2026-05-01 08:30 | 41.27793 | -73.22074 | 26485 ft | 485 kts | 26° |
| 2026-05-01 08:30 | 41.30650 | -73.19779 | 26942 ft | 488 kts | 26° |
| 2026-05-01 08:30 | 41.33566 | -73.17436 | 27387 ft | 492 kts | 27° |
| 2026-05-01 08:31 | 41.36382 | -73.14782 | 27862 ft | 500 kts | 36° |
| 2026-05-01 08:31 | 41.38887 | -73.11513 | 28339 ft | 508 kts | 46° |
| 2026-05-01 08:31 | 41.40988 | -73.07695 | 28785 ft | 514 kts | 56° |
| 2026-05-01 08:31 | 41.42832 | -73.03605 | 29366 ft | 515 kts | 58° |
| 2026-05-01 08:32 | 41.44613 | -72.99478 | 30011 ft | 514 kts | 58° |
| 2026-05-01 08:32 | 41.46387 | -72.95348 | 30555 ft | 513 kts | 58° |
| 2026-05-01 08:32 | 41.48173 | -72.91232 | 31051 ft | 512 kts | 59° |
| 2026-05-01 08:32 | 41.49960 | -72.87131 | 31575 ft | 511 kts | 59° |
| 2026-05-01 08:33 | 41.51727 | -72.83086 | 32066 ft | 511 kts | 59° |
| 2026-05-01 08:33 | 41.53521 | -72.78987 | 32554 ft | 510 kts | 59° |
| 2026-05-01 08:33 | 41.55312 | -72.74895 | 33046 ft | 510 kts | 59° |
| 2026-05-01 08:33 | 41.57104 | -72.70801 | 33519 ft | 510 kts | 59° |
| 2026-05-01 08:34 | 41.58896 | -72.66700 | 33977 ft | 510 kts | 59° |
| 2026-05-01 08:34 | 41.60683 | -72.62602 | 34366 ft | 510 kts | 59° |
| 2026-05-01 08:34 | 41.62466 | -72.58506 | 34746 ft | 509 kts | 59° |
| 2026-05-01 08:34 | 41.64248 | -72.54410 | 35139 ft | 508 kts | 59° |
| 2026-05-01 08:35 | 41.66032 | -72.50402 | 35522 ft | 508 kts | 58° |
| 2026-05-01 08:35 | 41.67858 | -72.46364 | 35919 ft | 506 kts | 58° |
| 2026-05-01 08:35 | 41.69685 | -72.42332 | 36296 ft | 505 kts | 58° |
| 2026-05-01 08:35 | 41.71504 | -72.38306 | 36652 ft | 505 kts | 58° |
| 2026-05-01 08:36 | 41.73317 | -72.34283 | 36978 ft | 504 kts | 58° |
| 2026-05-01 08:36 | 41.75125 | -72.30260 | 37294 ft | 504 kts | 58° |
| 2026-05-01 08:36 | 41.76936 | -72.26222 | 37562 ft | 505 kts | 58° |
| 2026-05-01 08:36 | 41.78720 | -72.22241 | 37755 ft | 506 kts | 58° |
| 2026-05-01 08:37 | 41.80531 | -72.18192 | 38030 ft | 506 kts | 58° |
| 2026-05-01 08:37 | 41.82344 | -72.14131 | 38302 ft | 507 kts | 58° |
| 2026-05-01 08:37 | 41.84157 | -72.10069 | 38510 ft | 507 kts | 59° |
| 2026-05-01 08:37 | 41.85968 | -72.06000 | 38696 ft | 508 kts | 59° |
| 2026-05-01 08:38 | 41.87780 | -72.01922 | 38832 ft | 509 kts | 59° |
| 2026-05-01 08:38 | 41.91449 | -71.93765 | 38876 ft | 511 kts | 56° |
| 2026-05-01 08:39 | 41.95626 | -71.86046 | 38861 ft | 511 kts | 49° |
| 2026-05-01 08:39 | 42.00401 | -71.79080 | 38874 ft | 510 kts | 43° |
| 2026-05-01 08:40 | 42.08445 | -71.69732 | 38867 ft | 509 kts | 38° |
| 2026-05-01 08:40 | 42.13889 | -71.63625 | 38875 ft | 509 kts | 38° |
| 2026-05-01 08:41 | 42.19283 | -71.57538 | 38870 ft | 509 kts | 39° |
| 2026-05-01 08:41 | 42.24714 | -71.51375 | 38865 ft | 510 kts | 39° |
| 2026-05-01 08:42 | 42.30141 | -71.45198 | 38859 ft | 510 kts | 39° |
| 2026-05-01 08:42 | 42.35569 | -71.39007 | 38858 ft | 510 kts | 39° |
| 2026-05-01 08:43 | 42.40951 | -71.32849 | 38851 ft | 510 kts | 39° |
| 2026-05-01 08:43 | 42.46376 | -71.26629 | 38851 ft | 510 kts | 39° |
| 2026-05-01 08:44 | 42.51791 | -71.20409 | 38876 ft | 510 kts | 39° |
| 2026-05-01 08:44 | 42.57205 | -71.14170 | 38869 ft | 510 kts | 39° |
| 2026-05-01 08:45 | 42.62578 | -71.07965 | 38870 ft | 510 kts | 39° |
| 2026-05-01 08:45 | 42.67985 | -71.01711 | 38876 ft | 510 kts | 40° |
| 2026-05-01 08:46 | 42.73385 | -70.95444 | 38873 ft | 510 kts | 40° |
| 2026-05-01 08:46 | 42.78790 | -70.89159 | 38858 ft | 510 kts | 40° |
| 2026-05-01 08:47 | 42.84150 | -70.82917 | 38838 ft | 510 kts | 40° |
| 2026-05-01 08:47 | 42.89536 | -70.76622 | 38810 ft | 510 kts | 40° |
| 2026-05-01 08:48 | 42.94921 | -70.70313 | 38812 ft | 510 kts | 40° |
| 2026-05-01 08:48 | 43.00301 | -70.64000 | 38818 ft | 510 kts | 40° |
| 2026-05-01 08:49 | 43.05649 | -70.57706 | 38815 ft | 510 kts | 40° |
| 2026-05-01 08:49 | 43.11030 | -70.51356 | 38816 ft | 511 kts | 40° |
| 2026-05-01 08:50 | 43.16413 | -70.44990 | 38825 ft | 511 kts | 40° |
| 2026-05-01 08:50 | 43.21791 | -70.38616 | 38828 ft | 511 kts | 40° |
| 2026-05-01 08:51 | 43.27170 | -70.32225 | 38821 ft | 511 kts | 40° |
| 2026-05-01 08:51 | 43.32504 | -70.25874 | 38833 ft | 511 kts | 41° |
| 2026-05-01 08:52 | 43.37873 | -70.19463 | 38811 ft | 511 kts | 41° |
| 2026-05-01 08:52 | 43.43234 | -70.13047 | 38813 ft | 511 kts | 41° |
| 2026-05-01 08:53 | 43.48553 | -70.06667 | 38813 ft | 509 kts | 41° |
| 2026-05-01 08:53 | 43.53893 | -70.00244 | 38815 ft | 509 kts | 41° |
| 2026-05-01 08:54 | 43.59226 | -69.93814 | 38815 ft | 509 kts | 41° |
| 2026-05-01 08:54 | 43.64553 | -69.87379 | 38818 ft | 509 kts | 41° |
| 2026-05-01 08:55 | 43.69877 | -69.80926 | 38816 ft | 509 kts | 41° |
| 2026-05-01 08:55 | 43.75163 | -69.74505 | 38817 ft | 509 kts | 41° |
| 2026-05-01 08:56 | 43.80480 | -69.68033 | 38804 ft | 509 kts | 41° |
| 2026-05-01 08:56 | 43.85795 | -69.61544 | 38804 ft | 509 kts | 42° |
| 2026-05-01 08:57 | 43.91107 | -69.55045 | 38805 ft | 509 kts | 42° |
| 2026-05-01 08:57 | 43.96377 | -69.48584 | 38802 ft | 508 kts | 42° |
| 2026-05-01 08:58 | 44.01673 | -69.42070 | 38798 ft | 509 kts | 42° |
| 2026-05-01 08:58 | 44.06970 | -69.35539 | 38780 ft | 509 kts | 42° |
| 2026-05-01 08:59 | 44.12261 | -69.29005 | 38779 ft | 508 kts | 42° |
| 2026-05-01 08:59 | 44.17508 | -69.22502 | 38777 ft | 508 kts | 43° |
| 2026-05-01 09:00 | 44.22789 | -69.15942 | 38777 ft | 508 kts | 43° |
| 2026-05-01 09:00 | 44.28069 | -69.09371 | 38776 ft | 508 kts | 43° |
| 2026-05-01 09:01 | 44.33341 | -69.02789 | 38772 ft | 508 kts | 43° |
| 2026-05-01 09:01 | 44.38572 | -68.96244 | 38754 ft | 508 kts | 43° |
| 2026-05-01 09:02 | 44.43842 | -68.89637 | 38766 ft | 509 kts | 43° |
| 2026-05-01 09:02 | 44.49113 | -68.83005 | 38766 ft | 509 kts | 43° |
| 2026-05-01 09:03 | 44.54379 | -68.76364 | 38763 ft | 509 kts | 43° |
| 2026-05-01 09:03 | 44.59607 | -68.69759 | 38762 ft | 509 kts | 43° |
| 2026-05-01 09:04 | 44.64866 | -68.63094 | 38761 ft | 509 kts | 44° |
| 2026-05-01 09:04 | 44.70121 | -68.56416 | 38759 ft | 509 kts | 44° |
| 2026-05-01 09:05 | 44.75371 | -68.49730 | 38758 ft | 509 kts | 44° |
| 2026-05-01 09:05 | 44.80617 | -68.43030 | 38752 ft | 509 kts | 44° |
| 2026-05-01 09:06 | 44.85822 | -68.36366 | 38749 ft | 509 kts | 44° |
| 2026-05-01 09:06 | 44.91062 | -68.29643 | 38749 ft | 509 kts | 44° |
| 2026-05-01 09:07 | 44.96293 | -68.22911 | 38746 ft | 509 kts | 44° |
| 2026-05-01 09:07 | 45.01517 | -68.16171 | 38743 ft | 509 kts | 44° |
| 2026-05-01 09:08 | 45.06707 | -68.09459 | 38745 ft | 508 kts | 44° |
| 2026-05-01 09:08 | 45.11922 | -68.02696 | 38744 ft | 508 kts | 44° |
| 2026-05-01 09:09 | 45.16248 | -67.97073 | 38740 ft | 508 kts | 44° |
| 2026-05-01 09:09 | 45.22332 | -67.89147 | 38718 ft | 507 kts | 45° |
| 2026-05-01 09:10 | 45.27487 | -67.82413 | 38731 ft | 506 kts | 45° |
| 2026-05-01 09:10 | 45.32664 | -67.75627 | 38733 ft | 506 kts | 45° |
| 2026-05-01 09:11 | 45.36935 | -67.69943 | 38735 ft | 506 kts | 46° |
| 2026-05-01 09:11 | 45.42838 | -67.61900 | 38737 ft | 505 kts | 46° |
| 2026-05-01 09:12 | 45.47913 | -67.54966 | 38739 ft | 505 kts | 46° |
| 2026-05-01 09:12 | 45.52984 | -67.48033 | 38738 ft | 505 kts | 46° |
| 2026-05-01 09:13 | 45.57200 | -67.42261 | 38736 ft | 505 kts | 46° |
| 2026-05-01 09:13 | 45.62263 | -67.35311 | 38734 ft | 505 kts | 46° |
| 2026-05-01 09:14 | 45.68143 | -67.27219 | 38734 ft | 505 kts | 46° |
| 2026-05-01 09:14 | 45.72346 | -67.21421 | 38731 ft | 504 kts | 46° |
| 2026-05-01 09:15 | 45.77397 | -67.14434 | 38738 ft | 504 kts | 46° |
| 2026-05-01 09:15 | 45.82446 | -67.07431 | 38736 ft | 504 kts | 46° |
| 2026-05-01 09:16 | 45.87484 | -67.00425 | 38736 ft | 504 kts | 46° |
| 2026-05-01 09:17 | 45.94997 | -66.89944 | 38741 ft | 504 kts | 46° |
| 2026-05-01 09:17 | 46.02527 | -66.79394 | 38729 ft | 504 kts | 46° |
| 2026-05-01 09:18 | 46.10055 | -66.68806 | 38748 ft | 504 kts | 46° |
| 2026-05-01 09:19 | 46.17537 | -66.58244 | 38757 ft | 504 kts | 47° |
| 2026-05-01 09:20 | 46.25042 | -66.47601 | 38762 ft | 504 kts | 47° |
| 2026-05-01 09:21 | 46.35003 | -66.33413 | 38779 ft | 504 kts | 47° |
| 2026-05-01 09:21 | 46.42489 | -66.22699 | 38791 ft | 504 kts | 47° |
| 2026-05-01 09:22 | 46.52451 | -66.08373 | 38791 ft | 504 kts | 47° |
| 2026-05-01 09:23 | 46.59870 | -65.97649 | 38805 ft | 504 kts | 47° |
| 2026-05-01 09:24 | 46.67323 | -65.86837 | 38815 ft | 504 kts | 47° |
| 2026-05-01 09:25 | 46.77234 | -65.72387 | 38821 ft | 503 kts | 47° |
| 2026-05-01 09:26 | 46.84607 | -65.61582 | 38823 ft | 502 kts | 47° |
| 2026-05-01 09:26 | 46.91991 | -65.50722 | 38834 ft | 501 kts | 47° |
| 2026-05-01 09:27 | 46.99326 | -65.39890 | 38848 ft | 501 kts | 47° |
| 2026-05-01 09:28 | 47.04223 | -65.32632 | 38855 ft | 500 kts | 47° |
| 2026-05-01 09:28 | 47.09102 | -65.25378 | 38858 ft | 499 kts | 47° |
| 2026-05-01 09:29 | 47.16406 | -65.14485 | 38859 ft | 498 kts | 47° |
| 2026-05-01 09:30 | 47.23654 | -65.03633 | 38858 ft | 496 kts | 47° |
| 2026-05-01 09:30 | 47.30895 | -64.92741 | 38867 ft | 496 kts | 47° |
| 2026-05-01 09:31 | 47.35717 | -64.85464 | 38875 ft | 496 kts | 47° |
| 2026-05-01 09:32 | 47.42882 | -64.74622 | 38877 ft | 492 kts | 48° |
| 2026-05-01 09:32 | 47.50036 | -64.63740 | 38907 ft | 492 kts | 48° |
| 2026-05-01 09:33 | 47.54801 | -64.56471 | 38913 ft | 491 kts | 48° |
| 2026-05-01 09:34 | 47.61873 | -64.45647 | 38917 ft | 489 kts | 48° |
| 2026-05-01 09:34 | 47.68971 | -64.34731 | 38932 ft | 490 kts | 48° |
| 2026-05-01 09:35 | 47.76064 | -64.23775 | 38932 ft | 491 kts | 48° |
| 2026-05-01 09:36 | 47.80764 | -64.16494 | 38950 ft | 491 kts | 48° |
| 2026-05-01 09:36 | 47.85488 | -64.09155 | 38951 ft | 490 kts | 48° |
| 2026-05-01 09:37 | 47.90206 | -64.01800 | 38951 ft | 492 kts | 48° |
| 2026-05-01 09:37 | 47.97298 | -63.90712 | 38960 ft | 492 kts | 48° |
| 2026-05-01 09:38 | 48.04348 | -63.79642 | 38968 ft | 492 kts | 48° |
| 2026-05-01 09:39 | 48.11420 | -63.68488 | 38977 ft | 492 kts | 49° |
| 2026-05-01 09:39 | 48.16126 | -63.61040 | 38980 ft | 492 kts | 49° |
| 2026-05-01 09:40 | 48.23145 | -63.49887 | 38982 ft | 492 kts | 49° |
| 2026-05-01 09:41 | 48.27844 | -63.42397 | 38987 ft | 492 kts | 49° |
| 2026-05-01 09:41 | 48.34884 | -63.31137 | 38995 ft | 492 kts | 49° |
| 2026-05-01 09:42 | 48.39538 | -63.23664 | 39007 ft | 492 kts | 49° |
| 2026-05-01 09:43 | 48.48880 | -63.08597 | 39025 ft | 492 kts | 49° |
| 2026-05-01 09:43 | 48.53543 | -63.01047 | 39025 ft | 492 kts | 49° |
| 2026-05-01 09:44 | 48.60497 | -62.89742 | 39033 ft | 492 kts | 49° |
| 2026-05-01 09:45 | 48.65152 | -62.82150 | 39047 ft | 492 kts | 49° |
| 2026-05-01 09:45 | 48.72127 | -62.70730 | 39051 ft | 492 kts | 49° |
| 2026-05-01 09:46 | 48.76736 | -62.63155 | 39065 ft | 492 kts | 49° |
| 2026-05-01 09:46 | 48.81371 | -62.55517 | 39061 ft | 492 kts | 49° |
| 2026-05-01 09:47 | 48.86002 | -62.47861 | 39075 ft | 492 kts | 49° |
| 2026-05-01 09:47 | 48.90631 | -62.40187 | 39079 ft | 491 kts | 49° |
| 2026-05-01 09:48 | 48.95210 | -62.32573 | 39079 ft | 490 kts | 49° |
| 2026-05-01 09:48 | 48.99810 | -62.24902 | 39086 ft | 490 kts | 49° |
| 2026-05-01 09:49 | 49.04402 | -62.17222 | 39096 ft | 490 kts | 49° |
| 2026-05-01 09:49 | 49.08992 | -62.09522 | 39104 ft | 490 kts | 49° |
| 2026-05-01 09:50 | 49.13546 | -62.01860 | 39106 ft | 490 kts | 49° |
| 2026-05-01 09:50 | 49.18120 | -61.94142 | 39116 ft | 490 kts | 49° |
| 2026-05-01 09:51 | 49.22692 | -61.86403 | 39116 ft | 490 kts | 49° |
| 2026-05-01 09:51 | 49.27263 | -61.78643 | 39123 ft | 490 kts | 50° |
| 2026-05-01 09:52 | 49.31799 | -61.70920 | 39128 ft | 491 kts | 50° |
| 2026-05-01 09:52 | 49.36362 | -61.63129 | 39125 ft | 491 kts | 50° |
| 2026-05-01 09:53 | 49.40919 | -61.55322 | 39130 ft | 490 kts | 50° |
| 2026-05-01 09:53 | 49.45469 | -61.47504 | 39127 ft | 490 kts | 50° |
| 2026-05-01 09:54 | 49.49982 | -61.39729 | 39141 ft | 490 kts | 50° |
| 2026-05-01 09:54 | 49.54521 | -61.31884 | 39147 ft | 490 kts | 50° |
| 2026-05-01 09:55 | 49.59054 | -61.24025 | 39145 ft | 490 kts | 50° |
| 2026-05-01 09:55 | 49.63578 | -61.16155 | 39147 ft | 490 kts | 50° |
| 2026-05-01 09:56 | 49.68066 | -61.08330 | 39155 ft | 490 kts | 50° |
| 2026-05-01 09:56 | 49.72580 | -61.00432 | 39163 ft | 490 kts | 50° |
| 2026-05-01 09:57 | 49.77082 | -60.92531 | 39151 ft | 490 kts | 50° |
| 2026-05-01 09:57 | 49.81585 | -60.84605 | 39170 ft | 490 kts | 50° |
| 2026-05-01 09:58 | 49.86051 | -60.76721 | 39169 ft | 490 kts | 50° |
| 2026-05-01 09:58 | 49.90542 | -60.68767 | 39168 ft | 490 kts | 50° |
| 2026-05-01 09:59 | 49.95022 | -60.60804 | 39173 ft | 488 kts | 50° |
| 2026-05-01 09:59 | 49.99491 | -60.52842 | 39184 ft | 488 kts | 50° |
| 2026-05-01 10:00 | 50.03919 | -60.44930 | 39185 ft | 488 kts | 50° |
| 2026-05-01 10:00 | 50.08373 | -60.36943 | 39193 ft | 488 kts | 50° |
| 2026-05-01 10:01 | 50.12827 | -60.28934 | 39187 ft | 489 kts | 50° |
| 2026-05-01 10:01 | 50.17274 | -60.20911 | 39202 ft | 489 kts | 50° |
| 2026-05-01 10:02 | 50.21690 | -60.12922 | 39214 ft | 489 kts | 50° |
| 2026-05-01 10:02 | 50.26127 | -60.04866 | 39212 ft | 489 kts | 51° |
| 2026-05-01 10:03 | 50.30557 | -59.96805 | 39226 ft | 488 kts | 51° |
| 2026-05-01 10:03 | 50.34977 | -59.88730 | 39235 ft | 488 kts | 51° |
| 2026-05-01 10:04 | 50.39361 | -59.80694 | 39232 ft | 488 kts | 51° |
| 2026-05-01 10:04 | 50.43771 | -59.72588 | 39241 ft | 488 kts | 51° |
| 2026-05-01 10:05 | 50.48171 | -59.64479 | 39247 ft | 487 kts | 51° |
| 2026-05-01 10:05 | 50.52559 | -59.56360 | 39246 ft | 487 kts | 51° |
| 2026-05-01 10:06 | 50.56914 | -59.48278 | 39251 ft | 487 kts | 51° |
| 2026-05-01 10:06 | 50.61292 | -59.40128 | 39252 ft | 487 kts | 51° |
| 2026-05-01 10:07 | 50.65662 | -59.31972 | 39248 ft | 486 kts | 51° |
| 2026-05-01 10:07 | 50.70021 | -59.23805 | 39254 ft | 486 kts | 52° |
| 2026-05-01 10:08 | 50.76520 | -59.11583 | 39253 ft | 486 kts | 52° |
| 2026-05-01 10:09 | 50.80864 | -59.03382 | 39253 ft | 485 kts | 52° |
| 2026-05-01 10:09 | 50.85192 | -58.95186 | 39258 ft | 485 kts | 52° |
| 2026-05-01 10:10 | 50.89485 | -58.87028 | 39259 ft | 485 kts | 52° |
| 2026-05-01 10:10 | 50.95956 | -58.74683 | 39259 ft | 485 kts | 52° |
| 2026-05-01 10:11 | 51.00263 | -58.66436 | 39261 ft | 484 kts | 52° |
| 2026-05-01 10:11 | 51.04559 | -58.58180 | 39259 ft | 484 kts | 52° |
| 2026-05-01 10:12 | 51.08822 | -58.49963 | 39264 ft | 484 kts | 52° |
| 2026-05-01 10:13 | 51.15247 | -58.37530 | 39264 ft | 484 kts | 52° |
| 2026-05-01 10:13 | 51.19526 | -58.29216 | 39268 ft | 484 kts | 52° |
| 2026-05-01 10:14 | 51.25924 | -58.16733 | 39268 ft | 484 kts | 52° |
| 2026-05-01 10:14 | 51.30158 | -58.08438 | 39263 ft | 484 kts | 53° |
| 2026-05-01 10:15 | 51.34406 | -58.00095 | 39273 ft | 483 kts | 53° |
| 2026-05-01 10:15 | 51.38638 | -57.91748 | 39276 ft | 483 kts | 53° |
| 2026-05-01 10:16 | 51.42836 | -57.83441 | 39273 ft | 483 kts | 53° |
| 2026-05-01 10:17 | 51.49170 | -57.70861 | 39278 ft | 483 kts | 53° |
| 2026-05-01 10:17 | 51.55488 | -57.58251 | 39282 ft | 482 kts | 53° |
| 2026-05-01 10:18 | 51.61761 | -57.45670 | 39281 ft | 482 kts | 53° |
| 2026-05-01 10:19 | 51.65954 | -57.37232 | 39285 ft | 482 kts | 54° |
| 2026-05-01 10:19 | 51.70130 | -57.28793 | 39273 ft | 481 kts | 54° |
| 2026-05-01 10:20 | 51.76369 | -57.16129 | 39295 ft | 480 kts | 54° |
| 2026-05-01 10:20 | 51.80495 | -57.07722 | 39304 ft | 480 kts | 54° |
| 2026-05-01 10:21 | 51.86716 | -56.95002 | 39306 ft | 481 kts | 54° |
| 2026-05-01 10:22 | 51.92923 | -56.82237 | 39309 ft | 481 kts | 54° |
| 2026-05-01 10:23 | 51.99091 | -56.69491 | 39306 ft | 481 kts | 54° |
| 2026-05-01 10:23 | 52.05277 | -56.56645 | 39313 ft | 481 kts | 54° |
| 2026-05-01 10:24 | 52.13513 | -56.39444 | 39312 ft | 481 kts | 55° |
| 2026-05-01 10:25 | 52.21695 | -56.22234 | 39312 ft | 481 kts | 55° |
| 2026-05-01 10:26 | 52.25793 | -56.13577 | 39313 ft | 481 kts | 55° |
| 2026-05-01 10:27 | 52.33934 | -55.96283 | 39304 ft | 481 kts | 55° |
| 2026-05-01 10:28 | 52.39813 | -55.83043 | 39309 ft | 477 kts | 60° |
| 2026-05-01 10:28 | 52.44530 | -55.68716 | 39302 ft | 475 kts | 66° |
| 2026-05-01 10:29 | 52.48944 | -55.54250 | 39312 ft | 474 kts | 65° |
| 2026-05-01 10:30 | 52.54844 | -55.34875 | 39319 ft | 474 kts | 65° |
| 2026-05-01 10:31 | 52.60700 | -55.15517 | 39313 ft | 474 kts | 66° |
| 2026-05-01 10:32 | 52.65079 | -55.00926 | 39332 ft | 473 kts | 66° |
| 2026-05-01 10:33 | 52.70869 | -54.81516 | 39335 ft | 473 kts | 66° |
| 2026-05-01 10:34 | 52.75205 | -54.66870 | 39341 ft | 473 kts | 66° |
| 2026-05-01 10:34 | 52.78081 | -54.57105 | 39335 ft | 472 kts | 66° |
| 2026-05-01 10:35 | 52.82373 | -54.42461 | 39344 ft | 471 kts | 66° |
| 2026-05-01 10:35 | 52.85205 | -54.32746 | 39348 ft | 471 kts | 66° |
| 2026-05-01 10:36 | 52.89464 | -54.18062 | 39353 ft | 471 kts | 66° |
| 2026-05-01 10:37 | 52.92293 | -54.08257 | 39357 ft | 471 kts | 66° |
| 2026-05-01 10:37 | 52.96499 | -53.93605 | 39362 ft | 471 kts | 66° |
| 2026-05-01 10:38 | 52.99306 | -53.83777 | 39365 ft | 471 kts | 67° |
| 2026-05-01 10:38 | 53.02104 | -53.73938 | 39371 ft | 471 kts | 66° |
| 2026-05-01 10:39 | 53.04894 | -53.64085 | 39369 ft | 470 kts | 66° |
| 2026-05-01 10:39 | 53.07657 | -53.54286 | 39373 ft | 470 kts | 67° |
| 2026-05-01 10:40 | 53.10427 | -53.44421 | 39369 ft | 470 kts | 67° |
| 2026-05-01 10:40 | 53.13188 | -53.34548 | 39372 ft | 470 kts | 67° |
| 2026-05-01 10:41 | 53.15938 | -53.24671 | 39382 ft | 469 kts | 67° |
| 2026-05-01 10:42 | 53.20031 | -53.09894 | 39378 ft | 470 kts | 67° |
| 2026-05-01 10:42 | 53.22764 | -52.99974 | 39385 ft | 470 kts | 67° |
| 2026-05-01 10:43 | 53.25488 | -52.90042 | 39387 ft | 470 kts | 67° |
| 2026-05-01 10:43 | 53.28202 | -52.80103 | 39398 ft | 470 kts | 68° |
| 2026-05-01 10:44 | 53.30910 | -52.70144 | 39396 ft | 470 kts | 68° |
| 2026-05-01 10:44 | 53.33594 | -52.60232 | 39398 ft | 470 kts | 68° |
| 2026-05-01 10:45 | 53.36288 | -52.50238 | 39392 ft | 470 kts | 68° |
| 2026-05-01 10:45 | 53.38974 | -52.40230 | 39400 ft | 470 kts | 68° |
| 2026-05-01 10:46 | 53.41649 | -52.30222 | 39408 ft | 470 kts | 68° |
| 2026-05-01 10:46 | 53.44297 | -52.20267 | 39402 ft | 470 kts | 68° |
| 2026-05-01 10:47 | 53.46958 | -52.10224 | 39409 ft | 470 kts | 68° |
| 2026-05-01 10:47 | 53.49609 | -52.00172 | 39414 ft | 470 kts | 68° |
| 2026-05-01 10:48 | 53.52249 | -51.90116 | 39419 ft | 470 kts | 68° |
| 2026-05-01 10:48 | 53.54865 | -51.80109 | 39420 ft | 470 kts | 68° |
| 2026-05-01 10:49 | 53.57491 | -51.70013 | 39420 ft | 471 kts | 68° |
| 2026-05-01 10:49 | 53.60115 | -51.59888 | 39425 ft | 471 kts | 68° |
| 2026-05-01 10:50 | 53.62727 | -51.49760 | 39424 ft | 471 kts | 68° |
| 2026-05-01 10:50 | 53.65315 | -51.39680 | 39429 ft | 471 kts | 68° |
| 2026-05-01 10:51 | 53.67911 | -51.29525 | 39432 ft | 471 kts | 69° |
| 2026-05-01 10:51 | 53.70497 | -51.19354 | 39438 ft | 470 kts | 68° |
| 2026-05-01 10:52 | 53.73069 | -51.09202 | 39433 ft | 469 kts | 69° |
| 2026-05-01 10:52 | 53.75613 | -50.99114 | 39440 ft | 469 kts | 69° |
| 2026-05-01 10:53 | 53.78165 | -50.88946 | 39441 ft | 469 kts | 69° |
| 2026-05-01 10:53 | 53.80711 | -50.78756 | 39443 ft | 469 kts | 69° |
| 2026-05-01 10:54 | 53.83248 | -50.68550 | 39438 ft | 471 kts | 69° |
| 2026-05-01 10:54 | 53.85766 | -50.58379 | 39445 ft | 471 kts | 69° |
| 2026-05-01 10:55 | 53.88291 | -50.48133 | 39444 ft | 471 kts | 69° |
| 2026-05-01 10:55 | 53.90808 | -50.37873 | 39446 ft | 471 kts | 69° |
| 2026-05-01 10:56 | 53.93316 | -50.27600 | 39448 ft | 471 kts | 69° |
| 2026-05-01 10:56 | 53.95800 | -50.17374 | 39451 ft | 471 kts | 69° |
| 2026-05-01 10:57 | 53.98293 | -50.07061 | 39453 ft | 471 kts | 69° |
| 2026-05-01 10:57 | 54.00441 | -49.96588 | 39448 ft | 468 kts | 76° |
| 2026-05-01 10:58 | 54.02042 | -49.85857 | 39455 ft | 467 kts | 78° |
| 2026-05-01 10:58 | 54.03566 | -49.75103 | 39457 ft | 467 kts | 78° |
| 2026-05-01 10:59 | 54.05075 | -49.64413 | 39454 ft | 468 kts | 78° |
| 2026-05-01 10:59 | 54.06591 | -49.53622 | 39456 ft | 468 kts | 78° |
| 2026-05-01 11:00 | 54.08100 | -49.42828 | 39457 ft | 468 kts | 78° |
| 2026-05-01 11:00 | 54.09601 | -49.32013 | 39459 ft | 468 kts | 78° |
| 2026-05-01 11:01 | 54.11082 | -49.21257 | 39493 ft | 471 kts | 78° |
| 2026-05-01 11:01 | 54.11830 | -49.15800 | 39708 ft | 472 kts | 78° |
| 2026-05-01 11:01 | 54.12573 | -49.10354 | 39988 ft | 470 kts | 78° |
| 2026-05-01 11:01 | 54.13312 | -49.04917 | 40234 ft | 470 kts | 78° |
| 2026-05-01 11:02 | 54.14049 | -48.99477 | 40412 ft | 471 kts | 78° |
| 2026-05-01 11:02 | 54.15522 | -48.88553 | 40459 ft | 472 kts | 78° |
| 2026-05-01 11:03 | 54.16987 | -48.77613 | 40468 ft | 472 kts | 78° |
| 2026-05-01 11:03 | 54.18431 | -48.66739 | 40468 ft | 472 kts | 78° |
| 2026-05-01 11:04 | 54.19876 | -48.55781 | 40477 ft | 472 kts | 78° |
| 2026-05-01 11:04 | 54.21310 | -48.44825 | 40476 ft | 472 kts | 79° |
| 2026-05-01 11:05 | 54.22733 | -48.33857 | 40477 ft | 472 kts | 79° |
| 2026-05-01 11:05 | 54.24138 | -48.22959 | 40477 ft | 472 kts | 79° |
| 2026-05-01 11:06 | 54.25540 | -48.11988 | 40475 ft | 470 kts | 79° |
| 2026-05-01 11:06 | 54.26927 | -48.01055 | 40479 ft | 470 kts | 79° |
| 2026-05-01 11:07 | 54.28989 | -47.84637 | 40478 ft | 470 kts | 79° |
| 2026-05-01 11:07 | 54.30345 | -47.73737 | 40487 ft | 471 kts | 79° |
| 2026-05-01 11:08 | 54.31701 | -47.62747 | 40488 ft | 471 kts | 79° |
| 2026-05-01 11:09 | 54.33715 | -47.46258 | 40489 ft | 471 kts | 79° |
| 2026-05-01 11:09 | 54.35037 | -47.35327 | 40490 ft | 471 kts | 79° |
| 2026-05-01 11:10 | 54.37014 | -47.18807 | 40484 ft | 470 kts | 79° |
| 2026-05-01 11:10 | 54.38318 | -47.07802 | 40492 ft | 470 kts | 79° |
| 2026-05-01 11:11 | 54.39611 | -46.96797 | 40495 ft | 470 kts | 80° |
| 2026-05-01 11:11 | 54.40885 | -46.85861 | 40495 ft | 470 kts | 80° |
| 2026-05-01 11:12 | 54.42157 | -46.74850 | 40496 ft | 470 kts | 80° |
| 2026-05-01 11:12 | 54.43419 | -46.63828 | 40492 ft | 470 kts | 80° |
| 2026-05-01 11:13 | 54.44673 | -46.52781 | 40497 ft | 471 kts | 80° |
| 2026-05-01 11:13 | 54.45920 | -46.41705 | 40498 ft | 471 kts | 80° |
| 2026-05-01 11:14 | 54.47149 | -46.30703 | 40498 ft | 471 kts | 80° |
| 2026-05-01 11:14 | 54.48373 | -46.19639 | 40496 ft | 469 kts | 81° |
| 2026-05-01 11:15 | 54.49583 | -46.08605 | 40498 ft | 469 kts | 81° |
| 2026-05-01 11:15 | 54.50782 | -45.97560 | 40495 ft | 470 kts | 81° |
| 2026-05-01 11:16 | 54.51967 | -45.86555 | 40503 ft | 470 kts | 81° |
| 2026-05-01 11:16 | 54.53152 | -45.75458 | 40503 ft | 470 kts | 81° |
| 2026-05-01 11:17 | 54.54325 | -45.64366 | 40503 ft | 470 kts | 81° |
| 2026-05-01 11:17 | 54.55488 | -45.53263 | 40503 ft | 470 kts | 81° |
| 2026-05-01 11:18 | 54.56642 | -45.42150 | 40504 ft | 470 kts | 81° |
| 2026-05-01 11:18 | 54.57778 | -45.31089 | 40498 ft | 471 kts | 81° |
| 2026-05-01 11:19 | 54.58913 | -45.19960 | 40500 ft | 470 kts | 81° |
| 2026-05-01 11:19 | 54.60035 | -45.08833 | 40501 ft | 470 kts | 81° |
| 2026-05-01 11:20 | 54.61147 | -44.97704 | 40500 ft | 470 kts | 82° |
| 2026-05-01 11:20 | 54.62241 | -44.86638 | 40501 ft | 470 kts | 82° |
| 2026-05-01 11:21 | 54.63332 | -44.75500 | 40499 ft | 471 kts | 82° |
| 2026-05-01 11:21 | 54.64417 | -44.64304 | 40501 ft | 473 kts | 82° |
| 2026-05-01 11:22 | 54.65495 | -44.53085 | 40503 ft | 473 kts | 82° |
| 2026-05-01 11:22 | 54.66555 | -44.41935 | 40504 ft | 473 kts | 82° |
| 2026-05-01 11:23 | 54.67612 | -44.30719 | 40506 ft | 471 kts | 82° |
| 2026-05-01 11:23 | 54.68654 | -44.19534 | 40506 ft | 470 kts | 82° |
| 2026-05-01 11:24 | 54.69682 | -44.08345 | 40501 ft | 472 kts | 82° |
| 2026-05-01 11:25 | 54.71210 | -43.91545 | 40505 ft | 473 kts | 82° |
| 2026-05-01 11:25 | 54.72723 | -43.74646 | 40506 ft | 473 kts | 82° |
| 2026-05-01 11:26 | 54.74212 | -43.57732 | 40506 ft | 473 kts | 83° |
| 2026-05-01 11:27 | 54.75183 | -43.46522 | 40503 ft | 475 kts | 83° |
| 2026-05-01 11:27 | 54.76158 | -43.35185 | 40498 ft | 475 kts | 83° |
| 2026-05-01 11:28 | 54.77120 | -43.23868 | 40501 ft | 474 kts | 83° |
| 2026-05-01 11:28 | 54.78069 | -43.12549 | 40500 ft | 474 kts | 83° |
| 2026-05-01 11:29 | 54.79466 | -42.95641 | 40500 ft | 474 kts | 83° |
| 2026-05-01 11:30 | 54.80846 | -42.78618 | 40506 ft | 477 kts | 83° |
| 2026-05-01 11:30 | 54.81761 | -42.67200 | 40506 ft | 478 kts | 83° |
| 2026-05-01 11:31 | 54.82660 | -42.55842 | 40505 ft | 478 kts | 83° |
| 2026-05-01 11:31 | 54.83553 | -42.44409 | 40503 ft | 478 kts | 83° |
| 2026-05-01 11:32 | 54.84436 | -42.32988 | 40499 ft | 476 kts | 84° |
| 2026-05-01 11:32 | 54.85304 | -42.21582 | 40503 ft | 476 kts | 84° |
| 2026-05-01 11:33 | 54.86160 | -42.10183 | 40501 ft | 476 kts | 84° |
| 2026-05-01 11:33 | 54.87000 | -41.98852 | 40504 ft | 476 kts | 84° |
| 2026-05-01 11:34 | 54.87836 | -41.87441 | 40505 ft | 476 kts | 84° |
| 2026-05-01 11:34 | 54.88661 | -41.76025 | 40503 ft | 476 kts | 84° |
| 2026-05-01 11:35 | 54.89475 | -41.64609 | 40502 ft | 476 kts | 84° |
| 2026-05-01 11:35 | 54.90272 | -41.53241 | 40502 ft | 478 kts | 84° |
| 2026-05-01 11:36 | 54.91071 | -41.41747 | 40499 ft | 478 kts | 84° |
| 2026-05-01 11:36 | 54.91857 | -41.30272 | 40496 ft | 477 kts | 84° |
| 2026-05-01 11:37 | 54.92631 | -41.18804 | 40505 ft | 477 kts | 84° |
| 2026-05-01 11:37 | 54.93388 | -41.07410 | 40501 ft | 477 kts | 84° |
| 2026-05-01 11:38 | 54.94140 | -40.95932 | 40501 ft | 477 kts | 85° |
| 2026-05-01 11:38 | 54.94881 | -40.84416 | 40500 ft | 479 kts | 84° |
| 2026-05-01 11:39 | 54.95616 | -40.72877 | 40498 ft | 479 kts | 85° |
| 2026-05-01 11:39 | 54.96335 | -40.61405 | 40493 ft | 479 kts | 85° |
| 2026-05-01 11:40 | 54.97048 | -40.49851 | 40492 ft | 479 kts | 85° |
| 2026-05-01 11:40 | 54.97749 | -40.38295 | 40497 ft | 478 kts | 85° |
| 2026-05-01 11:41 | 54.98437 | -40.26759 | 40492 ft | 479 kts | 85° |
| 2026-05-01 11:41 | 54.99114 | -40.15252 | 40495 ft | 481 kts | 85° |
| 2026-05-01 11:42 | 54.99785 | -40.03635 | 40487 ft | 481 kts | 85° |
| 2026-05-01 11:42 | 55.00360 | -39.92015 | 40490 ft | 481 kts | 87° |
| 2026-05-01 11:43 | 55.00805 | -39.80372 | 40491 ft | 481 kts | 87° |
| 2026-05-01 11:43 | 55.01240 | -39.68812 | 40483 ft | 481 kts | 87° |
| 2026-05-01 11:44 | 55.01893 | -39.51278 | 40484 ft | 484 kts | 87° |
| 2026-05-01 11:44 | 55.02323 | -39.39557 | 40488 ft | 484 kts | 87° |
| 2026-05-01 11:45 | 55.02742 | -39.27826 | 40488 ft | 484 kts | 87° |
| 2026-05-01 11:45 | 55.03146 | -39.16171 | 40487 ft | 484 kts | 87° |
| 2026-05-01 11:46 | 55.03541 | -39.04438 | 40486 ft | 484 kts | 87° |
| 2026-05-01 11:46 | 55.03923 | -38.92685 | 40480 ft | 486 kts | 87° |
| 2026-05-01 11:47 | 55.04298 | -38.80895 | 40486 ft | 486 kts | 87° |
| 2026-05-01 11:47 | 55.04660 | -38.69184 | 40480 ft | 486 kts | 87° |
| 2026-05-01 11:48 | 55.05012 | -38.57382 | 40478 ft | 486 kts | 87° |
| 2026-05-01 11:48 | 55.05353 | -38.45593 | 40476 ft | 485 kts | 88° |
| 2026-05-01 11:49 | 55.05681 | -38.33819 | 40481 ft | 485 kts | 88° |
| 2026-05-01 11:49 | 55.05992 | -38.22101 | 40483 ft | 488 kts | 87° |
| 2026-05-01 11:50 | 55.06301 | -38.10258 | 40478 ft | 488 kts | 87° |
| 2026-05-01 11:50 | 55.06598 | -37.98407 | 40477 ft | 488 kts | 88° |
| 2026-05-01 11:51 | 55.06882 | -37.86559 | 40473 ft | 488 kts | 88° |
| 2026-05-01 11:51 | 55.07155 | -37.74704 | 40479 ft | 488 kts | 88° |
| 2026-05-01 11:52 | 55.07414 | -37.62931 | 40480 ft | 489 kts | 88° |
| 2026-05-01 11:52 | 55.07664 | -37.51049 | 40473 ft | 489 kts | 88° |
| 2026-05-01 11:53 | 55.07904 | -37.39170 | 40471 ft | 488 kts | 88° |
| 2026-05-01 11:53 | 55.08130 | -37.27308 | 40471 ft | 488 kts | 88° |
| 2026-05-01 11:54 | 55.08346 | -37.15443 | 40470 ft | 488 kts | 88° |
| 2026-05-01 11:54 | 55.08548 | -37.03650 | 40468 ft | 488 kts | 88° |
| 2026-05-01 11:55 | 55.08738 | -36.91770 | 40477 ft | 490 kts | 88° |
| 2026-05-01 11:55 | 55.08920 | -36.79851 | 40467 ft | 491 kts | 88° |
| 2026-05-01 11:56 | 55.09091 | -36.67925 | 40466 ft | 491 kts | 88° |
| 2026-05-01 11:56 | 55.09249 | -36.56080 | 40463 ft | 490 kts | 88° |
| 2026-05-01 11:57 | 55.09371 | -36.46189 | 40467 ft | 490 kts | 88° |
| 2026-05-01 11:57 | 55.09530 | -36.32275 | 40474 ft | 490 kts | 88° |
| 2026-05-01 11:58 | 55.09650 | -36.20427 | 40469 ft | 491 kts | 88° |
| 2026-05-01 11:59 | 55.09815 | -36.02493 | 40463 ft | 492 kts | 88° |
| 2026-05-01 11:59 | 55.09910 | -35.90541 | 40463 ft | 492 kts | 89° |
| 2026-05-01 12:00 | 55.10031 | -35.72596 | 40465 ft | 492 kts | 89° |
| 2026-05-01 12:01 | 55.10124 | -35.54760 | 40464 ft | 490 kts | 89° |
| 2026-05-01 12:01 | 55.10172 | -35.42838 | 40463 ft | 490 kts | 89° |
| 2026-05-01 12:02 | 55.10207 | -35.30925 | 40463 ft | 490 kts | 89° |
| 2026-05-01 12:02 | 55.10232 | -35.19091 | 40463 ft | 490 kts | 89° |
| 2026-05-01 12:03 | 55.10244 | -35.07171 | 40462 ft | 490 kts | 89° |
| 2026-05-01 12:03 | 55.10243 | -34.95251 | 40464 ft | 491 kts | 89° |
| 2026-05-01 12:04 | 55.10233 | -34.83305 | 40460 ft | 492 kts | 89° |
| 2026-05-01 12:04 | 55.10212 | -34.71430 | 40452 ft | 492 kts | 89° |
| 2026-05-01 12:05 | 55.10179 | -34.59490 | 40456 ft | 490 kts | 89° |
| 2026-05-01 12:05 | 55.10107 | -34.41611 | 40454 ft | 490 kts | 90° |
| 2026-05-01 12:06 | 55.10043 | -34.29694 | 40464 ft | 490 kts | 89° |
| 2026-05-01 12:06 | 55.09966 | -34.17829 | 40456 ft | 492 kts | 89° |
| 2026-05-01 12:07 | 55.09882 | -34.05864 | 40452 ft | 492 kts | 89° |
| 2026-05-01 12:07 | 55.09785 | -33.93900 | 40455 ft | 492 kts | 90° |
| 2026-05-01 12:08 | 55.09675 | -33.81939 | 40452 ft | 492 kts | 90° |
| 2026-05-01 12:08 | 55.09555 | -33.70064 | 40449 ft | 490 kts | 90° |
| 2026-05-01 12:09 | 55.09419 | -33.58145 | 40455 ft | 491 kts | 90° |
| 2026-05-01 12:09 | 55.09275 | -33.46206 | 40455 ft | 491 kts | 90° |
| 2026-05-01 12:10 | 55.09038 | -33.28289 | 40445 ft | 491 kts | 90° |
| 2026-05-01 12:11 | 55.08775 | -33.10449 | 40444 ft | 491 kts | 90° |
| 2026-05-01 12:11 | 55.08583 | -32.98512 | 40460 ft | 491 kts | 90° |
| 2026-05-01 12:12 | 55.08377 | -32.86549 | 40447 ft | 493 kts | 90° |
| 2026-05-01 12:12 | 55.08199 | -32.76595 | 40438 ft | 492 kts | 90° |
| 2026-05-01 12:13 | 55.07939 | -32.62722 | 40444 ft | 491 kts | 90° |
| 2026-05-01 12:13 | 55.07702 | -32.50797 | 40439 ft | 491 kts | 90° |
| 2026-05-01 12:14 | 55.07495 | -32.40880 | 40441 ft | 491 kts | 90° |
| 2026-05-01 12:14 | 55.07235 | -32.28954 | 40449 ft | 491 kts | 90° |
| 2026-05-01 12:15 | 55.06918 | -32.15074 | 40440 ft | 492 kts | 90° |
| 2026-05-01 12:15 | 55.06681 | -32.05058 | 40436 ft | 492 kts | 90° |
| 2026-05-01 12:16 | 55.06389 | -31.93190 | 40436 ft | 492 kts | 90° |
| 2026-05-01 12:16 | 55.06082 | -31.81246 | 40433 ft | 491 kts | 90° |
| 2026-05-01 12:17 | 55.05764 | -31.69337 | 40429 ft | 490 kts | 90° |
| 2026-05-01 12:17 | 55.05435 | -31.57432 | 40440 ft | 491 kts | 90° |
| 2026-05-01 12:18 | 55.05097 | -31.45604 | 40429 ft | 491 kts | 90° |
| 2026-05-01 12:18 | 55.04746 | -31.33689 | 40428 ft | 491 kts | 90° |
| 2026-05-01 12:19 | 55.04382 | -31.21772 | 40428 ft | 491 kts | 91° |
| 2026-05-01 12:19 | 55.04007 | -31.09872 | 40428 ft | 491 kts | 91° |
| 2026-05-01 12:20 | 55.03620 | -30.97964 | 40441 ft | 491 kts | 91° |
| 2026-05-01 12:20 | 55.03223 | -30.86127 | 40422 ft | 491 kts | 91° |
| 2026-05-01 12:21 | 55.02813 | -30.74247 | 40425 ft | 490 kts | 91° |
| 2026-05-01 12:21 | 55.02393 | -30.62379 | 40421 ft | 490 kts | 91° |
| 2026-05-01 12:22 | 55.01961 | -30.50514 | 40420 ft | 490 kts | 91° |
| 2026-05-01 12:22 | 55.01521 | -30.38729 | 40417 ft | 490 kts | 91° |
| 2026-05-01 12:23 | 55.01067 | -30.26864 | 40425 ft | 490 kts | 91° |
| 2026-05-01 12:23 | 55.00600 | -30.14993 | 40415 ft | 490 kts | 91° |
| 2026-05-01 12:24 | 55.00120 | -30.03126 | 40413 ft | 490 kts | 91° |
| 2026-05-01 12:24 | 54.99539 | -29.91350 | 40411 ft | 491 kts | 94° |
| 2026-05-01 12:25 | 54.98469 | -29.73587 | 40412 ft | 491 kts | 94° |
| 2026-05-01 12:26 | 54.97753 | -29.61744 | 40418 ft | 491 kts | 94° |
| 2026-05-01 12:26 | 54.96674 | -29.44100 | 40410 ft | 490 kts | 94° |
| 2026-05-01 12:27 | 54.95568 | -29.26380 | 40405 ft | 490 kts | 94° |
| 2026-05-01 12:28 | 54.94436 | -29.08667 | 40399 ft | 490 kts | 94° |
| 2026-05-01 12:29 | 54.93285 | -28.91086 | 40400 ft | 489 kts | 94° |
| 2026-05-01 12:29 | 54.92107 | -28.73456 | 40395 ft | 488 kts | 94° |
| 2026-05-01 12:30 | 54.90904 | -28.55835 | 40401 ft | 489 kts | 95° |
| 2026-05-01 12:31 | 54.90087 | -28.44099 | 40399 ft | 489 kts | 95° |
| 2026-05-01 12:31 | 54.89265 | -28.32440 | 40408 ft | 489 kts | 95° |
| 2026-05-01 12:32 | 54.88427 | -28.20720 | 40400 ft | 488 kts | 95° |
| 2026-05-01 12:32 | 54.87149 | -28.03199 | 40385 ft | 486 kts | 95° |
| 2026-05-01 12:33 | 54.86287 | -27.91548 | 40387 ft | 486 kts | 95° |
| 2026-05-01 12:33 | 54.85419 | -27.79976 | 40388 ft | 486 kts | 95° |
| 2026-05-01 12:34 | 54.84535 | -27.68340 | 40384 ft | 486 kts | 95° |
| 2026-05-01 12:34 | 54.83640 | -27.56702 | 40392 ft | 485 kts | 95° |
| 2026-05-01 12:35 | 54.82734 | -27.45086 | 40381 ft | 485 kts | 95° |
| 2026-05-01 12:35 | 54.81822 | -27.33553 | 40382 ft | 485 kts | 96° |
| 2026-05-01 12:36 | 54.80894 | -27.21952 | 40378 ft | 484 kts | 96° |
| 2026-05-01 12:36 | 54.79957 | -27.10385 | 40377 ft | 483 kts | 96° |
| 2026-05-01 12:37 | 54.79012 | -26.98843 | 40379 ft | 483 kts | 96° |
| 2026-05-01 12:37 | 54.78057 | -26.87301 | 40377 ft | 483 kts | 96° |
| 2026-05-01 12:38 | 54.77094 | -26.75833 | 40376 ft | 483 kts | 96° |
| 2026-05-01 12:38 | 54.76114 | -26.64296 | 40370 ft | 483 kts | 96° |
| 2026-05-01 12:39 | 54.75124 | -26.52772 | 40372 ft | 483 kts | 96° |
| 2026-05-01 12:39 | 54.74123 | -26.41248 | 40361 ft | 483 kts | 96° |
| 2026-05-01 12:40 | 54.73118 | -26.29822 | 40369 ft | 482 kts | 96° |
| 2026-05-01 12:40 | 54.72100 | -26.18345 | 40375 ft | 482 kts | 97° |
| 2026-05-01 12:41 | 54.71069 | -26.06871 | 40357 ft | 482 kts | 97° |
| 2026-05-01 12:41 | 54.70027 | -25.95403 | 40355 ft | 482 kts | 97° |
| 2026-05-01 12:42 | 54.68981 | -25.84014 | 40356 ft | 482 kts | 97° |
| 2026-05-01 12:42 | 54.67917 | -25.72556 | 40351 ft | 482 kts | 97° |
| 2026-05-01 12:43 | 54.66844 | -25.61108 | 40357 ft | 482 kts | 97° |
| 2026-05-01 12:43 | 54.65757 | -25.49641 | 40348 ft | 483 kts | 97° |
| 2026-05-01 12:44 | 54.64668 | -25.38286 | 40348 ft | 481 kts | 97° |
| 2026-05-01 12:45 | 54.62450 | -25.15471 | 40348 ft | 481 kts | 97° |
| 2026-05-01 12:45 | 54.61324 | -25.04072 | 40343 ft | 481 kts | 98° |
| 2026-05-01 12:46 | 54.60195 | -24.92752 | 40346 ft | 482 kts | 98° |
| 2026-05-01 12:46 | 54.59046 | -24.81352 | 40339 ft | 482 kts | 98° |
| 2026-05-01 12:47 | 54.57887 | -24.69955 | 40340 ft | 482 kts | 98° |
| 2026-05-01 12:47 | 54.56716 | -24.58573 | 40338 ft | 481 kts | 98° |
| 2026-05-01 12:48 | 54.55539 | -24.47230 | 40333 ft | 480 kts | 98° |
| 2026-05-01 12:48 | 54.54361 | -24.35973 | 40332 ft | 480 kts | 98° |
| 2026-05-01 12:49 | 54.53165 | -24.24648 | 40337 ft | 481 kts | 98° |
| 2026-05-01 12:49 | 54.51955 | -24.13313 | 40333 ft | 481 kts | 98° |
| 2026-05-01 12:50 | 54.50743 | -24.02059 | 40327 ft | 481 kts | 98° |
| 2026-05-01 12:50 | 54.49512 | -23.90733 | 40328 ft | 481 kts | 98° |
| 2026-05-01 12:51 | 54.48270 | -23.79414 | 40321 ft | 481 kts | 98° |
| 2026-05-01 12:52 | 54.46391 | -23.62488 | 40326 ft | 479 kts | 98° |
| 2026-05-01 12:52 | 54.44501 | -23.45668 | 40317 ft | 479 kts | 99° |
| 2026-05-01 12:53 | 54.42577 | -23.28789 | 40319 ft | 479 kts | 99° |
| 2026-05-01 12:54 | 54.41282 | -23.17544 | 40314 ft | 479 kts | 99° |
| 2026-05-01 12:54 | 54.39319 | -23.00685 | 40321 ft | 479 kts | 99° |
| 2026-05-01 12:55 | 54.37340 | -22.83909 | 40314 ft | 479 kts | 99° |
| 2026-05-01 12:56 | 54.36007 | -22.72729 | 40305 ft | 478 kts | 99° |
| 2026-05-01 12:56 | 54.34664 | -22.61556 | 40309 ft | 478 kts | 99° |
| 2026-05-01 12:57 | 54.33320 | -22.50470 | 40302 ft | 478 kts | 99° |
| 2026-05-01 12:57 | 54.31272 | -22.33741 | 40307 ft | 478 kts | 100° |
| 2026-05-01 12:58 | 54.29893 | -22.22596 | 40299 ft | 478 kts | 100° |
| 2026-05-01 12:59 | 54.27815 | -22.05967 | 40301 ft | 478 kts | 100° |
| 2026-05-01 12:59 | 54.25707 | -21.89300 | 40305 ft | 476 kts | 100° |
| 2026-05-01 13:00 | 54.23580 | -21.72675 | 40314 ft | 477 kts | 100° |
| 2026-05-01 13:01 | 54.21436 | -21.56115 | 40297 ft | 477 kts | 100° |
| 2026-05-01 13:02 | 54.19258 | -21.39487 | 40301 ft | 477 kts | 101° |
| 2026-05-01 13:07 | 54.02592 | -20.18092 | 40266 ft | 478 kts | 102° |
| 2026-05-01 13:08 | 54.01025 | -20.07170 | 40264 ft | 478 kts | 102° |
| 2026-05-01 13:08 | 53.99332 | -19.96229 | 40264 ft | 479 kts | 104° |
| 2026-05-01 13:09 | 53.97425 | -19.85372 | 40261 ft | 478 kts | 105° |
| 2026-05-01 13:09 | 53.95504 | -19.74538 | 40263 ft | 479 kts | 105° |
| 2026-05-01 13:10 | 53.93772 | -19.64798 | 40250 ft | 478 kts | 105° |
| 2026-05-01 13:10 | 53.93770 | -19.64786 | 40250 ft | 466 kts | 105° |